Terminal Aerodrome Forecast
Issued by NWS

Home | Current Version | Previous Version | Graphics & Text | Print | Product List | Glossary On
Versions: 1 2 3 4 5 6 7 8 9 10 11 12 13 14 15 16 17 18 19 20
000
FTUS43 KGRB 011700
TAFCWA
TAF
KCWA 011724Z 0118/0218 23009G15KT P6SM VCSH BKN010 OVC025
      TEMPO 0118/0119 -SHRA BKN015
     FM012000 27010G18KT P6SM SCT020 BKN070
     FM020000 27010KT P6SM SCT020 SCT150
     FM020300 28005KT P6SM SCT250
     FM020800 28003KT 5SM BR SCT250
     FM021400 26007KT P6SM SCT035 BKN090=

USA.gov is the U.S. government's official web portal to all federal, state and local government web resources and services.